sensor_id;sensor_type;location;lat;lon;timestamp;P1;durP1;ratioP1;P2;durP2;ratioP2
75272;SDS011;63869;52.344;16.928;2024-02-23T09:17:17;1.30;;;1.10;;
75272;SDS011;63869;52.344;16.928;2024-02-23T10:00:42;2.08;;;1.25;;
75272;SDS011;63869;52.344;16.928;2024-02-23T10:11:30;1.80;;;1.40;;
75272;SDS011;63869;52.344;16.928;2024-02-23T10:14:30;3.53;;;1.50;;
75272;SDS011;63869;52.344;16.928;2024-02-23T10:19:37;4.00;;;1.85;;
75272;SDS011;63869;52.344;16.928;2024-02-23T10:24:42;4.20;;;1.52;;
75272;SDS011;63869;52.344;16.928;2024-02-23T10:34:56;3.80;;;2.20;;
75272;SDS011;63869;52.344;16.928;2024-02-23T10:37:30;2.85;;;1.90;;
75272;SDS011;63869;52.344;16.928;2024-02-23T15:19:09;6.47;;;2.10;;
75272;SDS011;63869;52.344;16.928;2024-02-23T15:55:14;4.97;;;2.15;;
75272;SDS011;63869;52.344;16.928;2024-02-23T15:57:46;4.97;;;2.80;;
75272;SDS011;63869;52.344;16.928;2024-02-23T16:00:17;6.03;;;2.60;;
75272;SDS011;63869;52.344;16.928;2024-02-23T16:02:42;4.68;;;2.40;;
75272;SDS011;63869;52.344;16.928;2024-02-23T16:05:17;5.78;;;2.80;;
75272;SDS011;63869;52.344;16.928;2024-02-23T16:07:45;4.40;;;2.53;;
75272;SDS011;63869;52.344;16.928;2024-02-23T16:10:10;5.35;;;2.47;;
75272;SDS011;63869;52.344;16.928;2024-02-23T16:12:49;5.93;;;2.80;;
75272;SDS011;63869;52.344;16.928;2024-02-23T16:15:17;8.93;;;3.97;;
75272;SDS011;63869;52.344;16.928;2024-02-23T17:27:32;11.40;;;5.28;;
75272;SDS011;63869;52.344;16.928;2024-02-23T17:29:59;9.43;;;5.18;;
75272;SDS011;63869;52.344;16.928;2024-02-23T17:32:25;12.65;;;4.88;;
75272;SDS011;63869;52.344;16.928;2024-02-23T17:34:50;12.32;;;4.60;;
75272;SDS011;63869;52.344;16.928;2024-02-23T17:37:16;9.98;;;4.78;;
75272;SDS011;63869;52.344;16.928;2024-02-23T17:39:41;12.38;;;5.03;;
75272;SDS011;63869;52.344;16.928;2024-02-23T17:42:07;7.95;;;4.22;;
75272;SDS011;63869;52.344;16.928;2024-02-23T17:44:32;9.57;;;4.80;;
75272;SDS011;63869;52.344;16.928;2024-02-23T17:46:58;11.45;;;4.32;;
75272;SDS011;63869;52.344;16.928;2024-02-23T17:49:23;11.60;;;4.95;;
75272;SDS011;63869;52.344;16.928;2024-02-23T17:51:48;11.13;;;4.90;;
75272;SDS011;63869;52.344;16.928;2024-02-23T17:54:14;21.73;;;7.55;;
75272;SDS011;63869;52.344;16.928;2024-02-23T17:56:39;19.70;;;6.78;;
75272;SDS011;63869;52.344;16.928;2024-02-23T17:59:07;27.88;;;8.32;;
75272;SDS011;63869;52.344;16.928;2024-02-23T18:01:32;32.05;;;10.25;;
75272;SDS011;63869;52.344;16.928;2024-02-23T18:04:00;17.90;;;6.85;;
75272;SDS011;63869;52.344;16.928;2024-02-23T18:06:26;11.30;;;5.82;;
75272;SDS011;63869;52.344;16.928;2024-02-23T18:08:51;17.80;;;6.47;;
75272;SDS011;63869;52.344;16.928;2024-02-23T18:11:17;10.77;;;5.80;;
75272;SDS011;63869;52.344;16.928;2024-02-23T18:13:42;14.68;;;6.15;;
75272;SDS011;63869;52.344;16.928;2024-02-23T18:16:08;26.48;;;8.18;;
75272;SDS011;63869;52.344;16.928;2024-02-23T18:18:37;12.90;;;5.78;;
75272;SDS011;63869;52.344;16.928;2024-02-23T18:21:03;11.93;;;5.15;;
75272;SDS011;63869;52.344;16.928;2024-02-23T18:23:29;10.30;;;6.13;;
75272;SDS011;63869;52.344;16.928;2024-02-23T18:25:58;11.32;;;5.45;;
75272;SDS011;63869;52.344;16.928;2024-02-23T18:28:23;11.15;;;5.78;;
75272;SDS011;63869;52.344;16.928;2024-02-23T18:30:51;12.68;;;6.38;;
75272;SDS011;63869;52.344;16.928;2024-02-23T18:33:17;13.63;;;6.70;;
75272;SDS011;63869;52.344;16.928;2024-02-23T18:35:44;11.75;;;6.38;;
75272;SDS011;63869;52.344;16.928;2024-02-23T18:38:12;9.75;;;5.72;;
75272;SDS011;63869;52.344;16.928;2024-02-23T18:40:41;14.80;;;6.40;;
75272;SDS011;63869;52.344;16.928;2024-02-23T18:43:09;13.57;;;6.40;;
75272;SDS011;63869;52.344;16.928;2024-02-23T18:45:35;15.38;;;6.70;;
75272;SDS011;63869;52.344;16.928;2024-02-23T18:55:48;45.13;;;11.82;;
75272;SDS011;63869;52.344;16.928;2024-02-23T19:01:56;14.98;;;6.47;;
75272;SDS011;63869;52.344;16.928;2024-02-23T19:04:25;14.07;;;5.35;;
75272;SDS011;63869;52.344;16.928;2024-02-23T19:06:57;13.23;;;6.00;;
75272;SDS011;63869;52.344;16.928;2024-02-23T19:16:44;15.02;;;6.00;;
75272;SDS011;63869;52.344;16.928;2024-02-23T19:19:30;12.10;;;5.38;;
75272;SDS011;63869;52.344;16.928;2024-02-23T19:22:55;10.02;;;5.05;;
75272;SDS011;63869;52.344;16.928;2024-02-23T19:29:29;12.65;;;5.93;;
75272;SDS011;63869;52.344;16.928;2024-02-23T19:32:03;12.02;;;5.70;;
